Etusivu
METAR-TAF:

METAR-TAF

Lentoasemat :

Luxeuil-les-Bains, Ranska

Leveyspiiri: 47-47N, Pituuspiiri: 006-21E, korkeus merenpinnasta: 278 m

Tämänhetkinen sää

Tämä raportti tehtiin 27 minuuttia sitten, kello 15.30 UTC
Tuuli 5 kn etelästä/kaakosta, vaihdellen idän/kaakon ja etelän/lounaan välillä
Lämpötila 16°C
Kosteus 29%
Ilmanpaine 1029 hPa
Näkyvyys 10 km tai enemmän
ei pilviä alle 1500 m:ssä eikä cumulonimbus-pilviä

METAR: LFSX 211530Z AUTO 15005KT 110V200 CAVOK 16/M02 Q1029

Aika: 16:57 (15:57 UTC)

Sääennuste

Tämä raportti tehtiin 1 tunti ja 57 minuuttia sitten, kello 14.00 UTC
Ennuste voimassa 21. päivästä klo 15 UTC - 22. päivään klo 15 UTC
Tuuli 3 kn eri suunnista
Näkyvyys 10 km tai enemmän
ei pilviä alle 1500 m:ssä eikä cumulonimbus-pilviä
Ajoittain
22. päivästä klo 00 UTC - 22. päivään klo 06 UTC
Näkyvyys: 2000 m
sumuhattaroita

TAF: LFSX 211400Z 2115/2215 VRB03KT CAVOK TEMPO 2200/2206 2000 BCFG

Säähavainnot ja -ennusteet yli 4000 lentoasemalta (METAR- ja TAF-raportit).

Käytössä olevat sääasemat on merkitty karttaan keltaisilla ja punaisilla pisteillä.

Aseta hiiri pisteen päälle nähdäksesi sääaseman nimen.

Klikkaa sitten nähdäksesi säähavainnot ja -ennusteet.

Kartan vaihtaminen: klikkaa mustalla rastilla varustettuja vihreitä pisteitä, niin voit zoomata sisään; viivalla varustettua vihreää pistettä, niin voit zoomata ulos tai vihreitä nuolia, niin pääset viereisille kartoille.


METAR-TAF: